Time;durP1;ratioP1;P1;durP2;ratioP2;P2;SDS_P1;SDS_P2;PMS_P1;PMS_P2;Temp;Humidity;BMP_temperature;BMP_pressure;BME280_temperature;BME280_humidity;BME280_pressure;Samples;Min_cycle;Max_cycle;Signal;HPM_P1;HPM_P2
2023/07/05 00:00:13;;;;;;;;;;;;;;;28.00;43.68;100686.34;103021;1288;66614;-82
2023/07/05 00:02:39;;;;;;;;;;;;;;;28.00;43.71;100687.81;102896;1287;61473;-82
2023/07/05 00:05:04;;;;;;;;;;;;;;;28.00;43.84;100688.20;102954;1287;61440;-82
2023/07/05 00:07:30;;;;;;;;;;;;;;;28.00;43.63;100684.38;103066;1287;61381;-82
2023/07/05 00:09:55;;;;;;;;;;;;;;;28.00;43.48;100681.15;102951;1286;61240;-82
2023/07/05 00:12:21;;;;;;;;;;;;;;;27.99;43.68;100678.70;102859;1286;61386;-82
2023/07/05 00:14:46;;;;;;;;;;;;;;;28.00;43.70;100673.96;102904;1287;61434;-82
2023/07/05 00:17:12;;;;;;;;;;;;;;;27.99;43.65;100671.44;103135;1286;61373;-82
2023/07/05 00:19:39;;;;;;;;;;;;;;;27.99;43.67;100670.52;103018;1287;61360;-82
2023/07/05 00:22:05;;;;;;;;;;;;;;;27.99;43.54;100672.19;103037;1290;61381;-82
2023/07/05 00:24:31;;;;;;;;;;;;;;;27.99;43.55;100678.87;102845;1286;62167;-82
2023/07/05 00:26:56;;;;;;;;;;;;;;;27.99;43.75;100680.89;102745;1286;62301;-82
2023/07/05 00:29:22;;;;;;;;;;;;;;;27.99;43.74;100678.52;102841;1286;61525;-82
2023/07/05 00:31:47;;;;;;;;;;;;;;;27.99;43.53;100684.64;102881;1287;62308;-82
2023/07/05 00:34:12;;;;;;;;;;;;;;;27.99;43.82;100684.86;103097;1288;60096;-82
2023/07/05 00:36:39;;;;;;;;;;;;;;;27.98;43.82;100680.59;103007;1285;62219;-82
2023/07/05 00:39:04;;;;;;;;;;;;;;;27.98;43.92;100680.39;103126;1286;61414;-82
2023/07/05 00:41:31;;;;;;;;;;;;;;;27.98;43.80;100680.59;103018;1287;62189;-82
2023/07/05 00:43:56;;;;;;;;;;;;;;;27.99;43.94;100682.90;103100;1286;64859;-82
2023/07/05 00:46:24;;;;;;;;;;;;;;;27.98;43.87;100678.04;102880;1287;61392;-82
2023/07/05 00:48:53;;;;;;;;;;;;;;;27.99;43.83;100679.65;103047;1286;60053;-82
2023/07/05 00:51:24;;;;;;;;;;;;;;;27.98;43.80;100680.91;103151;1286;61414;-82
2023/07/05 00:53:51;;;;;;;;;;;;;;;27.98;43.85;100680.21;102891;1286;64897;-82
2023/07/05 00:56:36;;;;;;;;;;;;;;;27.98;43.90;100679.53;103078;1286;60047;-82
2023/07/05 00:59:02;;;;;;;;;;;;;;;27.98;43.89;100677.16;103095;1289;61339;-82
2023/07/05 01:01:27;;;;;;;;;;;;;;;27.98;43.86;100671.93;103136;1288;61418;-82
2023/07/05 01:03:53;;;;;;;;;;;;;;;27.98;43.68;100667.60;102825;1287;61378;-82
2023/07/05 01:06:21;;;;;;;;;;;;;;;27.98;43.80;100668.85;102838;1286;62304;-82
2023/07/05 01:08:47;;;;;;;;;;;;;;;27.98;43.89;100667.09;102928;1287;61366;-82
2023/07/05 01:11:26;;;;;;;;;;;;;;;27.98;43.73;100664.73;103068;1286;61399;-82
2023/07/05 01:13:59;;;;;;;;;;;;;;;27.97;43.77;100658.95;103063;1288;65053;-82
2023/07/05 01:16:33;;;;;;;;;;;;;;;27.98;43.65;100658.78;102976;1286;66654;-82
2023/07/05 01:19:01;;;;;;;;;;;;;;;27.98;43.72;100661.83;103239;1286;61380;-82
2023/07/05 01:21:43;;;;;;;;;;;;;;;27.98;43.86;100664.36;103230;1286;61310;-82
2023/07/05 01:24:08;;;;;;;;;;;;;;;27.98;43.97;100659.66;102915;1288;63882;-82
2023/07/05 01:26:55;;;;;;;;;;;;;;;27.98;43.80;100658.20;103083;1287;61378;-82
2023/07/05 01:29:21;;;;;;;;;;;;;;;27.98;43.60;100656.77;103162;1287;62255;-82
2023/07/05 01:31:46;;;;;;;;;;;;;;;27.97;43.81;100657.92;103014;1288;61374;-82
2023/07/05 01:34:21;;;;;;;;;;;;;;;27.97;43.94;100655.22;103105;1288;62199;-82
2023/07/05 01:36:46;;;;;;;;;;;;;;;27.97;43.86;100660.44;103223;1289;65914;-82
2023/07/05 01:39:12;;;;;;;;;;;;;;;27.97;43.74;100663.55;103064;1288;59961;-82
2023/07/05 01:41:37;;;;;;;;;;;;;;;27.97;44.07;100662.87;103083;1286;61411;-82
2023/07/05 01:44:02;;;;;;;;;;;;;;;27.97;43.69;100661.04;103105;1286;61492;-82
2023/07/05 01:46:31;;;;;;;;;;;;;;;27.96;43.98;100662.36;103084;1287;61320;-82
2023/07/05 01:48:56;;;;;;;;;;;;;;;27.97;44.05;100665.93;102906;1286;66886;-82
2023/07/05 01:51:28;;;;;;;;;;;;;;;27.96;44.04;100664.18;103041;1286;62329;-82
2023/07/05 01:53:54;;;;;;;;;;;;;;;27.96;44.11;100663.27;103007;1289;61402;-82
2023/07/05 01:56:20;;;;;;;;;;;;;;;27.97;44.02;100662.84;103121;1287;60553;-82
2023/07/05 01:58:47;;;;;;;;;;;;;;;27.96;44.10;100659.98;102889;1290;61521;-82
2023/07/05 02:01:13;;;;;;;;;;;;;;;27.96;44.03;100662.18;102733;1291;61291;-82
2023/07/05 02:03:38;;;;;;;;;;;;;;;27.96;44.03;100667.27;102827;1287;59982;-82
2023/07/05 02:06:04;;;;;;;;;;;;;;;27.96;44.06;100671.58;102864;1286;61478;-82
2023/07/05 02:08:30;;;;;;;;;;;;;;;27.96;43.96;100671.10;103027;1289;61362;-82
2023/07/05 02:10:56;;;;;;;;;;;;;;;27.96;44.00;100666.05;103066;1287;62283;-82
2023/07/05 02:13:21;;;;;;;;;;;;;;;27.96;44.06;100673.27;103111;1286;61307;-82
2023/07/05 02:15:50;;;;;;;;;;;;;;;27.96;44.04;100677.59;102782;1286;61409;-82
2023/07/05 02:18:16;;;;;;;;;;;;;;;27.96;44.10;100677.59;103025;1289;64835;-82
2023/07/05 02:20:42;;;;;;;;;;;;;;;27.96;44.01;100679.58;103023;1286;62162;-82
2023/07/05 02:23:07;;;;;;;;;;;;;;;27.96;44.15;100681.04;102898;1288;61666;-82
2023/07/05 02:25:35;;;;;;;;;;;;;;;27.95;44.23;100678.90;103056;1287;62237;-82
2023/07/05 02:28:00;;;;;;;;;;;;;;;27.95;44.30;100674.05;103028;1288;61396;-82
2023/07/05 02:30:26;;;;;;;;;;;;;;;27.95;44.23;100678.73;103051;1286;61421;-82
2023/07/05 02:32:52;;;;;;;;;;;;;;;27.95;44.24;100676.19;103072;1286;62305;-82
2023/07/05 02:35:17;;;;;;;;;;;;;;;27.95;44.30;100680.39;103048;1287;60107;-82
2023/07/05 02:37:43;;;;;;;;;;;;;;;27.95;44.06;100680.20;102975;1288;61384;-83
2023/07/05 02:40:09;;;;;;;;;;;;;;;27.95;44.07;100682.05;102820;1286;60534;-83
2023/07/05 02:42:34;;;;;;;;;;;;;;;27.94;44.23;100680.11;102884;1285;62323;-83
2023/07/05 02:44:59;;;;;;;;;;;;;;;27.93;44.01;100674.22;102791;1290;61498;-83
2023/07/05 02:47:25;;;;;;;;;;;;;;;27.93;44.24;100676.90;102889;1287;60328;-82
2023/07/05 02:49:50;;;;;;;;;;;;;;;27.93;44.15;100676.02;102866;1286;61523;-82
2023/07/05 02:52:17;;;;;;;;;;;;;;;27.93;44.14;100675.38;103289;1290;60027;-82
2023/07/05 02:54:42;;;;;;;;;;;;;;;27.91;44.24;100675.55;103066;1289;61155;-82
2023/07/05 02:57:08;;;;;;;;;;;;;;;27.88;44.08;100675.70;103040;1289;61297;-82
2023/07/05 02:59:33;;;;;;;;;;;;;;;27.83;44.49;100679.57;103109;1289;62154;-82
2023/07/05 03:02:00;;;;;;;;;;;;;;;27.80;44.50;100680.31;102913;1290;60053;-82
2023/07/05 03:04:26;;;;;;;;;;;;;;;27.76;44.46;100678.52;103095;1286;62184;-82
2023/07/05 03:06:51;;;;;;;;;;;;;;;27.73;44.51;100678.23;103121;1287;61272;-82
2023/07/05 03:09:18;;;;;;;;;;;;;;;27.71;44.59;100675.97;103119;1288;60159;-82
2023/07/05 03:11:43;;;;;;;;;;;;;;;27.69;44.65;100678.19;102940;1290;62278;-82
2023/07/05 03:14:09;;;;;;;;;;;;;;;27.66;44.85;100679.52;103029;1288;60080;-82
2023/07/05 03:16:34;;;;;;;;;;;;;;;27.64;44.74;100681.40;103107;1289;61501;-82
2023/07/05 03:18:59;;;;;;;;;;;;;;;27.62;44.99;100678.50;102898;1287;61411;-82
2023/07/05 03:21:25;;;;;;;;;;;;;;;27.60;45.02;100679.58;102959;1287;61544;-82
2023/07/05 03:23:50;;;;;;;;;;;;;;;27.59;45.15;100675.90;102938;1286;61415;-82
2023/07/05 03:26:16;;;;;;;;;;;;;;;27.57;45.07;100677.20;102875;1290;61370;-82
2023/07/05 03:28:41;;;;;;;;;;;;;;;27.55;45.30;100678.61;102898;1290;61402;-82
2023/07/05 03:31:14;;;;;;;;;;;;;;;27.54;45.54;100678.71;102945;1285;67306;-82
2023/07/05 03:33:39;;;;;;;;;;;;;;;27.54;45.42;100679.27;103029;1285;61366;-82
2023/07/05 03:36:06;;;;;;;;;;;;;;;27.54;45.33;100680.70;103063;1289;62154;-82
2023/07/05 03:38:33;;;;;;;;;;;;;;;27.54;45.43;100681.97;103620;1289;61351;-82
2023/07/05 03:41:01;;;;;;;;;;;;;;;27.54;45.45;100681.99;102954;1290;61351;-82
2023/07/05 03:43:27;;;;;;;;;;;;;;;27.53;45.43;100680.46;102906;1285;60467;-82
2023/07/05 03:45:53;;;;;;;;;;;;;;;27.52;45.48;100680.39;103030;1289;61271;-82
2023/07/05 03:48:20;;;;;;;;;;;;;;;27.51;45.41;100680.44;103156;1286;62291;-82
2023/07/05 03:50:46;;;;;;;;;;;;;;;27.51;45.63;100683.18;103040;1286;59946;-82
2023/07/05 03:53:11;;;;;;;;;;;;;;;27.51;45.72;100686.67;103101;1286;62302;-82
2023/07/05 03:55:37;;;;;;;;;;;;;;;27.50;45.75;100687.64;102839;1286;62262;-82
2023/07/05 03:58:02;;;;;;;;;;;;;;;27.51;45.77;100686.70;103097;1286;61386;-82
2023/07/05 04:00:27;;;;;;;;;;;;;;;27.51;45.78;100685.02;103121;1288;61361;-82
2023/07/05 04:02:53;;;;;;;;;;;;;;;27.51;45.95;100682.30;102832;1290;61387;-82
2023/07/05 04:05:19;;;;;;;;;;;;;;;27.51;45.65;100682.09;103318;1286;60637;-82
2023/07/05 04:07:44;;;;;;;;;;;;;;;27.51;45.89;100681.19;102883;1286;61258;-82
2023/07/05 04:10:10;;;;;;;;;;;;;;;27.52;45.67;100680.95;102937;1292;61399;-82
2023/07/05 04:12:35;;;;;;;;;;;;;;;27.52;45.70;100684.21;103061;1289;61414;-82
2023/07/05 04:15:01;;;;;;;;;;;;;;;27.52;45.73;100682.18;103194;1287;66710;-82
2023/07/05 04:17:30;;;;;;;;;;;;;;;27.52;45.77;100681.50;102876;1288;62263;-82
2023/07/05 04:19:55;;;;;;;;;;;;;;;27.51;46.03;100683.39;103033;1290;62175;-82
2023/07/05 04:22:21;;;;;;;;;;;;;;;27.50;46.10;100683.67;103012;1290;62166;-82
2023/07/05 04:24:46;;;;;;;;;;;;;;;27.48;46.11;100680.41;103197;1287;60096;-82
2023/07/05 04:27:12;;;;;;;;;;;;;;;27.49;46.26;100679.95;102928;1286;62264;-82
2023/07/05 04:29:38;;;;;;;;;;;;;;;27.50;46.17;100677.86;103080;1288;61408;-82
2023/07/05 04:32:03;;;;;;;;;;;;;;;27.51;46.13;100678.10;102834;1286;60101;-82
2023/07/05 04:34:29;;;;;;;;;;;;;;;27.51;46.26;100681.32;103127;1283;61595;-82
2023/07/05 04:36:54;;;;;;;;;;;;;;;27.52;46.14;100687.02;103190;1283;61343;-82
2023/07/05 04:39:20;;;;;;;;;;;;;;;27.53;46.10;100685.34;103218;1283;61399;-82
2023/07/05 04:41:45;;;;;;;;;;;;;;;27.53;46.06;100682.77;103186;1283;61386;-82
2023/07/05 04:44:11;;;;;;;;;;;;;;;27.54;46.05;100680.52;103364;1289;60046;-82
2023/07/05 04:46:36;;;;;;;;;;;;;;;27.55;46.12;100683.56;103087;1289;61451;-82
2023/07/05 04:49:02;;;;;;;;;;;;;;;27.55;46.14;100685.69;103143;1289;62060;-82
2023/07/05 04:51:27;;;;;;;;;;;;;;;27.54;45.99;100683.25;103215;1284;61279;-82
2023/07/05 04:53:53;;;;;;;;;;;;;;;27.53;46.22;100679.89;103272;1283;60105;-82
2023/07/05 04:56:18;;;;;;;;;;;;;;;27.54;46.12;100685.23;103103;1289;61462;-82
2023/07/05 04:58:44;;;;;;;;;;;;;;;27.55;46.27;100686.38;103311;1283;61382;-82
2023/07/05 05:01:10;;;;;;;;;;;;;;;27.56;46.27;100680.29;103292;1284;61381;-82
2023/07/05 05:03:37;;;;;;;;;;;;;;;27.58;46.05;100682.52;103126;1283;61157;-82
2023/07/05 05:06:02;;;;;;;;;;;;;;;27.60;46.01;100687.71;103124;1283;62277;-82
2023/07/05 05:08:28;;;;;;;;;;;;;;;27.62;45.91;100690.58;103315;1284;61402;-82
2023/07/05 05:10:58;;;;;;;;;;;;;;;27.63;45.85;100694.40;103047;1288;61474;-82
2023/07/05 05:13:24;;;;;;;;;;;;;;;27.66;45.89;100696.34;103178;1285;59999;-82
2023/07/05 05:15:50;;;;;;;;;;;;;;;27.68;46.18;100694.89;103118;1286;61390;-82
2023/07/05 05:18:15;;;;;;;;;;;;;;;27.68;45.89;100696.63;103154;1283;61399;-82
2023/07/05 05:20:41;;;;;;;;;;;;;;;27.70;45.78;100697.59;103218;1283;61358;-82
2023/07/05 05:23:06;;;;;;;;;;;;;;;27.71;45.95;100690.04;103214;1285;62144;-82
2023/07/05 05:25:32;;;;;;;;;;;;;;;27.72;45.76;100694.63;103251;1283;61163;-82
2023/07/05 05:27:58;;;;;;;;;;;;;;;27.74;45.74;100695.91;103076;1285;61411;-82
2023/07/05 05:30:24;;;;;;;;;;;;;;;27.75;45.70;100697.73;103291;1284;59997;-82
2023/07/05 05:32:49;;;;;;;;;;;;;;;27.77;45.92;100696.32;103263;1283;61484;-82
2023/07/05 05:35:15;;;;;;;;;;;;;;;27.79;45.89;100697.02;103248;1284;61400;-82
2023/07/05 05:37:40;;;;;;;;;;;;;;;27.81;45.69;100699.88;103160;1284;61834;-82
2023/07/05 05:40:06;;;;;;;;;;;;;;;27.82;45.76;100700.27;103699;1283;61353;-82
2023/07/05 05:42:32;;;;;;;;;;;;;;;27.84;45.64;100698.68;103273;1284;61411;-82
2023/07/05 05:44:57;;;;;;;;;;;;;;;27.85;45.74;100699.84;103053;1290;61555;-81
2023/07/05 05:47:22;;;;;;;;;;;;;;;27.86;45.79;100703.73;103096;1286;61495;-81
2023/07/05 05:49:48;;;;;;;;;;;;;;;27.87;45.73;100704.02;103180;1286;61375;-81
2023/07/05 05:52:14;;;;;;;;;;;;;;;27.88;45.57;100702.92;103130;1285;61356;-81
2023/07/05 05:54:39;;;;;;;;;;;;;;;27.89;45.59;100707.17;103243;1283;62161;-81
2023/07/05 05:57:05;;;;;;;;;;;;;;;27.90;45.49;100713.06;103478;1283;61460;-81
2023/07/05 05:59:31;;;;;;;;;;;;;;;27.91;45.53;100718.41;102938;1287;60157;-81
2023/07/05 06:01:56;;;;;;;;;;;;;;;27.91;45.31;100723.56;103119;1282;61427;-81
2023/07/05 06:04:22;;;;;;;;;;;;;;;27.93;45.39;100719.48;103744;1284;60049;-81
2023/07/05 06:06:47;;;;;;;;;;;;;;;27.94;45.41;100718.98;103286;1288;61366;-82
2023/07/05 06:09:14;;;;;;;;;;;;;;;27.95;45.36;100718.88;103241;1285;61410;-82
2023/07/05 06:11:39;;;;;;;;;;;;;;;27.96;45.40;100724.61;103250;1286;60667;-82
2023/07/05 06:14:05;;;;;;;;;;;;;;;27.96;45.37;100727.88;102993;1286;62267;-82
2023/07/05 06:16:31;;;;;;;;;;;;;;;27.95;45.31;100731.36;103227;1285;60030;-82
2023/07/05 06:18:57;;;;;;;;;;;;;;;27.95;45.35;100729.23;103063;1286;62153;-82
2023/07/05 06:21:23;;;;;;;;;;;;;;;27.96;45.37;100731.33;103050;1289;61429;-82
2023/07/05 06:23:48;;;;;;;;;;;;;;;27.97;45.45;100733.77;102877;1286;60260;-82
2023/07/05 06:26:13;;;;;;;;;;;;;;;27.97;45.33;100729.02;103148;1286;62164;-81
2023/07/05 06:28:39;;;;;;;;;;;;;;;27.98;45.47;100726.94;103149;1285;60060;-81
2023/07/05 06:31:07;;;;;;;;;;;;;;;27.99;45.12;100723.23;103085;1286;62166;-81
2023/07/05 06:33:33;;;;;;;;;;;;;;;27.99;45.31;100722.83;102917;1286;61555;-81
2023/07/05 06:36:01;;;;;;;;;;;;;;;27.99;45.52;100729.30;103100;1285;61566;-81
2023/07/05 06:38:27;;;;;;;;;;;;;;;28.00;45.49;100730.73;103140;1290;64867;-81
2023/07/05 06:40:53;;;;;;;;;;;;;;;28.00;45.51;100727.45;103301;1289;61358;-81
2023/07/05 06:43:20;;;;;;;;;;;;;;;28.01;45.60;100728.29;103436;1284;61257;-81
2023/07/05 06:45:53;;;;;;;;;;;;;;;28.01;45.48;100726.77;103127;1286;60174;-81
2023/07/05 06:48:18;;;;;;;;;;;;;;;28.02;45.59;100726.38;103486;1285;66135;-81
2023/07/05 06:50:44;;;;;;;;;;;;;;;28.01;45.65;100725.88;103831;1286;62361;-81
2023/07/05 06:53:10;;;;;;;;;;;;;;;28.02;45.68;100721.65;104178;1283;60534;-81
2023/07/05 06:55:38;;;;;;;;;;;;;;;28.03;45.70;100724.27;104144;1288;60196;-81
2023/07/05 06:58:03;;;;;;;;;;;;;;;28.04;45.80;100726.73;104109;1285;61380;-81
2023/07/05 07:00:29;;;;;;;;;;;;;;;28.04;45.94;100725.58;104103;1285;62309;-81
2023/07/05 07:02:54;;;;;;;;;;;;;;;28.05;45.68;100718.45;104097;1285;60107;-81
2023/07/05 07:05:19;;;;;;;;;;;;;;;28.06;45.93;100721.96;104262;1287;61785;-81
2023/07/05 07:07:45;;;;;;;;;;;;;;;28.07;45.90;100724.38;103586;1285;60120;-81
2023/07/05 07:10:10;;;;;;;;;;;;;;;28.08;45.78;100722.98;103249;1286;597182;-81
2023/07/05 07:12:36;;;;;;;;;;;;;;;28.08;45.69;100722.79;104045;1288;62242;-81
2023/07/05 07:15:02;;;;;;;;;;;;;;;28.09;45.86;100727.81;103960;1283;60996;-81
2023/07/05 07:17:27;;;;;;;;;;;;;;;28.09;45.88;100728.66;104100;1284;60052;-81
2023/07/05 07:19:53;;;;;;;;;;;;;;;28.09;45.90;100729.01;104136;1284;61399;-81
2023/07/05 07:22:18;;;;;;;;;;;;;;;28.10;46.00;100728.06;103983;1287;61696;-81
2023/07/05 07:24:44;;;;;;;;;;;;;;;28.10;45.74;100735.66;104189;1283;62056;-82
2023/07/05 07:27:09;;;;;;;;;;;;;;;28.11;45.81;100733.09;104102;1284;61363;-81
2023/07/05 07:29:35;;;;;;;;;;;;;;;28.11;45.83;100732.89;103936;1284;61184;-81
2023/07/05 07:32:01;;;;;;;;;;;;;;;28.12;45.90;100737.30;104054;1286;62132;-81
2023/07/05 07:34:27;;;;;;;;;;;;;;;28.12;45.92;100740.38;103603;1284;59980;-81
2023/07/05 07:36:52;;;;;;;;;;;;;;;28.12;45.81;100740.87;104163;1284;61342;-82
2023/07/05 07:39:18;;;;;;;;;;;;;;;28.13;45.96;100740.60;103752;1289;61407;-82
2023/07/05 07:41:43;;;;;;;;;;;;;;;28.13;46.00;100739.89;103723;1283;61378;-81
2023/07/05 07:44:09;;;;;;;;;;;;;;;28.14;45.69;100738.57;103646;1287;62242;-81
2023/07/05 07:46:35;;;;;;;;;;;;;;;28.14;45.88;100736.51;103795;1284;63829;-81
2023/07/05 07:49:01;;;;;;;;;;;;;;;28.14;46.08;100733.23;103905;1286;59993;-81
2023/07/05 07:51:28;;;;;;;;;;;;;;;28.15;45.93;100737.15;104065;1284;60053;-82
2023/07/05 07:53:54;;;;;;;;;;;;;;;28.15;45.73;100737.48;103935;1283;60072;-82
2023/07/05 07:56:20;;;;;;;;;;;;;;;28.16;45.75;100738.71;103687;1284;60034;-82
2023/07/05 07:58:46;;;;;;;;;;;;;;;28.16;45.90;100735.60;103583;1284;61303;-83
2023/07/05 08:01:12;;;;;;;;;;;;;;;28.16;45.78;100732.91;103850;1287;59562;-82
2023/07/05 08:03:38;;;;;;;;;;;;;;;28.15;45.84;100731.33;104053;1284;61081;-83
2023/07/05 08:06:03;;;;;;;;;;;;;;;28.16;45.85;100730.04;104187;1284;62153;-83
2023/07/05 08:08:29;;;;;;;;;;;;;;;28.17;45.92;100737.70;103972;1284;60119;-83
2023/07/05 08:10:54;;;;;;;;;;;;;;;28.17;45.78;100734.05;103920;1284;61380;-83
2023/07/05 08:13:20;;;;;;;;;;;;;;;28.17;46.05;100732.65;103742;1284;61554;-82
2023/07/05 08:15:45;;;;;;;;;;;;;;;28.17;45.98;100728.65;103850;1285;61195;-82
2023/07/05 08:18:10;;;;;;;;;;;;;;;28.17;45.93;100731.34;103679;1286;62332;-82
2023/07/05 08:20:37;;;;;;;;;;;;;;;28.17;45.83;100732.97;103531;1284;74313;-82
2023/07/05 08:23:02;;;;;;;;;;;;;;;28.17;45.75;100732.59;103776;1284;61266;-83
2023/07/05 08:25:28;;;;;;;;;;;;;;;28.17;45.84;100735.33;103585;1284;62175;-83
2023/07/05 08:27:53;;;;;;;;;;;;;;;28.17;45.87;100734.02;103896;1285;60281;-83
2023/07/05 08:30:19;;;;;;;;;;;;;;;28.17;45.73;100730.39;103552;1284;62273;-82
2023/07/05 08:32:44;;;;;;;;;;;;;;;28.17;45.86;100729.88;103767;1286;59995;-83
2023/07/05 08:35:10;;;;;;;;;;;;;;;28.17;45.74;100733.51;103786;1285;61342;-83
2023/07/05 08:37:35;;;;;;;;;;;;;;;28.17;45.84;100733.91;103500;1285;61379;-82
2023/07/05 08:40:01;;;;;;;;;;;;;;;28.17;45.84;100729.70;103707;1284;61394;-82
2023/07/05 08:42:45;;;;;;;;;;;;;;;28.17;45.75;100729.67;103758;1283;60554;-82
2023/07/05 08:45:10;;;;;;;;;;;;;;;28.17;45.85;100727.88;104859;1284;67379;-82
2023/07/05 08:47:56;;;;;;;;;;;;;;;28.17;45.65;100723.73;104096;1284;61440;-82
2023/07/05 08:50:38;;;;;;;;;;;;;;;28.18;45.82;100726.93;103964;1284;61383;-82
2023/07/05 08:53:11;;;;;;;;;;;;;;;28.18;45.83;100721.98;103488;1285;65696;-83
2023/07/05 08:55:56;;;;;;;;;;;;;;;28.18;45.74;100722.14;103574;1285;66649;-83
2023/07/05 08:58:22;;;;;;;;;;;;;;;28.19;45.63;100722.66;103927;1284;61181;-83
2023/07/05 09:00:59;;;;;;;;;;;;;;;28.19;45.72;100722.97;105885;1284;60509;-83
2023/07/05 09:03:28;;;;;;;;;;;;;;;28.19;45.74;100720.42;106676;1284;63907;-83
2023/07/05 09:05:57;;;;;;;;;;;;;;;28.20;45.67;100716.56;104421;1284;66828;-83
2023/07/05 09:08:35;;;;;;;;;;;;;;;28.20;45.60;100714.33;103915;1284;60343;-83
2023/07/05 09:11:03;;;;;;;;;;;;;;;28.21;45.77;100711.73;103853;1284;61279;-83
2023/07/05 09:13:30;;;;;;;;;;;;;;;28.21;45.56;100707.02;103778;1286;64620;-83
2023/07/05 09:16:05;;;;;;;;;;;;;;;28.22;45.70;100706.98;103902;1289;66728;-83
2023/07/05 09:18:39;;;;;;;;;;;;;;;28.21;45.60;100703.20;103968;1283;62164;-83
2023/07/05 09:21:05;;;;;;;;;;;;;;;28.21;45.63;100708.97;103490;1283;61335;-83
2023/07/05 09:23:48;;;;;;;;;;;;;;;28.22;45.55;100702.06;103792;1284;60060;-83
2023/07/05 09:26:34;;;;;;;;;;;;;;;28.22;45.73;100699.55;103679;1284;66991;-83
2023/07/05 09:28:59;;;;;;;;;;;;;;;28.22;45.80;100698.39;103840;1284;61262;-83
2023/07/05 09:31:28;;;;;;;;;;;;;;;28.23;45.59;100696.36;103565;1284;62308;-83
2023/07/05 09:34:17;;;;;;;;;;;;;;;28.23;45.63;100697.23;103310;1284;63818;-83
2023/07/05 09:36:42;;;;;;;;;;;;;;;28.23;45.41;100697.63;103499;1284;65619;-83
2023/07/05 09:39:27;;;;;;;;;;;;;;;28.23;45.63;100692.19;103574;1287;61460;-83
2023/07/05 09:41:53;;;;;;;;;;;;;;;28.23;45.44;100688.38;103707;1284;61251;-83
2023/07/05 09:44:19;;;;;;;;;;;;;;;28.22;45.32;100682.81;103589;1284;61224;-83
2023/07/05 09:46:44;;;;;;;;;;;;;;;28.23;45.47;100682.04;104028;1284;61392;-83
2023/07/05 09:49:11;;;;;;;;;;;;;;;28.23;45.45;100678.95;104086;1285;62155;-83
2023/07/05 09:51:36;;;;;;;;;;;;;;;28.23;45.38;100670.60;105681;1284;61383;-83
2023/07/05 09:54:02;;;;;;;;;;;;;;;28.23;45.19;100667.01;103973;1284;60063;-83
2023/07/05 09:56:28;;;;;;;;;;;;;;;28.23;45.34;100664.27;103798;1284;61202;-83
2023/07/05 09:59:08;;;;;;;;;;;;;;;28.23;45.31;100661.56;103672;1284;66118;-83
2023/07/05 10:01:34;;;;;;;;;;;;;;;28.24;45.18;100659.73;103796;1285;61389;-83
2023/07/05 10:04:00;;;;;;;;;;;;;;;28.24;44.95;100656.44;104196;1287;62310;-83
2023/07/05 10:06:26;;;;;;;;;;;;;;;28.24;45.30;100654.41;104220;1284;59589;-82
2023/07/05 10:08:53;;;;;;;;;;;;;;;28.24;45.19;100657.27;104120;1284;61440;-82
2023/07/05 10:11:22;;;;;;;;;;;;;;;28.24;45.18;100654.58;104777;1284;60973;-82
2023/07/05 10:14:00;;;;;;;;;;;;;;;28.24;45.12;100653.66;103969;1282;61308;-82
2023/07/05 10:16:25;;;;;;;;;;;;;;;28.25;45.10;100652.54;104333;1282;63814;-82
2023/07/05 10:18:50;;;;;;;;;;;;;;;28.25;44.95;100649.98;104198;1282;61384;-82
2023/07/05 10:21:19;;;;;;;;;;;;;;;28.25;44.88;100645.47;104343;1283;61420;-82
2023/07/05 10:23:46;;;;;;;;;;;;;;;28.25;44.98;100646.02;103721;1285;60017;-82
2023/07/05 10:26:12;;;;;;;;;;;;;;;28.25;44.98;100641.30;103470;1284;63871;-82
2023/07/05 10:28:37;;;;;;;;;;;;;;;28.25;44.87;100639.34;103019;1284;61404;-82
2023/07/05 10:31:07;;;;;;;;;;;;;;;28.25;44.90;100634.59;103241;1287;61391;-82
2023/07/05 10:33:33;;;;;;;;;;;;;;;28.25;44.89;100638.90;103001;1290;62310;-82
2023/07/05 10:35:58;;;;;;;;;;;;;;;28.25;44.82;100632.99;103127;1287;61441;-82
2023/07/05 10:38:28;;;;;;;;;;;;;;;28.24;44.83;100629.98;103308;1282;61476;-82
2023/07/05 10:40:54;;;;;;;;;;;;;;;28.24;44.85;100629.77;103455;1282;61295;-82
2023/07/05 10:43:20;;;;;;;;;;;;;;;28.24;44.94;100628.48;103453;1284;61405;-82
2023/07/05 10:45:45;;;;;;;;;;;;;;;28.25;44.74;100632.26;103556;1288;61380;-82
2023/07/05 10:48:23;;;;;;;;;;;;;;;28.24;44.90;100625.97;103956;1285;62365;-82
2023/07/05 10:50:48;;;;;;;;;;;;;;;28.24;44.78;100626.16;103110;1286;60075;-82
2023/07/05 10:53:15;;;;;;;;;;;;;;;28.24;44.80;100619.45;103662;1284;61395;-82
2023/07/05 10:55:49;;;;;;;;;;;;;;;28.24;44.84;100623.42;103625;1284;61447;-82
2023/07/05 10:58:15;;;;;;;;;;;;;;;28.24;44.79;100616.91;103646;1286;66801;-82
2023/07/05 11:00:55;;;;;;;;;;;;;;;28.25;44.78;100613.62;103402;1285;61327;-83
2023/07/05 11:03:23;;;;;;;;;;;;;;;28.24;44.70;100610.94;103905;1285;62032;-83
2023/07/05 11:05:49;;;;;;;;;;;;;;;28.25;44.76;100616.00;104113;1286;72302;-83
2023/07/05 11:08:15;;;;;;;;;;;;;;;28.25;44.92;100611.45;104003;1286;61412;-83
2023/07/05 11:10:41;;;;;;;;;;;;;;;28.25;44.91;100605.69;103605;1287;59383;-83
2023/07/05 11:13:11;;;;;;;;;;;;;;;28.25;44.72;100604.54;103448;1289;61511;-83
2023/07/05 11:15:36;;;;;;;;;;;;;;;28.25;44.68;100602.23;103765;1287;64886;-83
2023/07/05 11:18:02;;;;;;;;;;;;;;;28.25;44.77;100599.13;103030;1289;62310;-83
2023/07/05 11:20:30;;;;;;;;;;;;;;;28.25;44.62;100595.48;102771;1291;62356;-83
2023/07/05 11:22:56;;;;;;;;;;;;;;;28.25;44.71;100593.52;103128;1287;60495;-83
2023/07/05 11:25:21;;;;;;;;;;;;;;;28.25;44.54;100590.62;104113;1287;61391;-83
2023/07/05 11:27:53;;;;;;;;;;;;;;;28.25;44.73;100591.54;104045;1288;61405;-83
2023/07/05 11:30:37;;;;;;;;;;;;;;;28.25;44.67;100590.62;104264;1289;59450;-83
2023/07/05 11:33:02;;;;;;;;;;;;;;;28.25;44.74;100589.16;103994;1287;61334;-83
2023/07/05 11:35:46;;;;;;;;;;;;;;;28.26;44.60;100585.85;103525;1286;61502;-83
2023/07/05 11:38:31;;;;;;;;;;;;;;;28.26;44.44;100582.05;102719;1288;65839;-82
2023/07/05 11:40:56;;;;;;;;;;;;;;;28.25;44.48;100581.88;102929;1289;61244;-82
2023/07/05 11:43:23;;;;;;;;;;;;;;;28.25;44.39;100573.20;103103;1284;61386;-83
2023/07/05 11:45:48;;;;;;;;;;;;;;;28.26;44.54;100569.54;103086;1288;61381;-83
2023/07/05 11:48:33;;;;;;;;;;;;;;;28.26;44.46;100568.98;103207;1284;62243;-83
2023/07/05 11:50:58;;;;;;;;;;;;;;;28.26;44.48;100570.10;103779;1286;61338;-83
2023/07/05 11:53:24;;;;;;;;;;;;;;;28.26;44.45;100566.30;104139;1287;61274;-83
2023/07/05 11:55:49;;;;;;;;;;;;;;;28.26;44.30;100557.45;104017;1284;62227;-83
2023/07/05 11:58:20;;;;;;;;;;;;;;;28.26;44.46;100554.54;103484;1285;62225;-82
2023/07/05 12:00:50;;;;;;;;;;;;;;;28.26;44.50;100561.02;103291;1285;61228;-82
2023/07/05 12:03:22;;;;;;;;;;;;;;;28.26;44.53;100550.30;103447;1284;61356;-82
2023/07/05 12:05:53;;;;;;;;;;;;;;;28.27;44.45;100547.92;103435;1286;64764;-82
2023/07/05 12:08:21;;;;;;;;;;;;;;;28.27;44.29;100540.15;104032;1287;65950;-83
2023/07/05 12:10:58;;;;;;;;;;;;;;;28.26;44.46;100541.08;103783;1284;61246;-83
2023/07/05 12:13:26;;;;;;;;;;;;;;;28.27;44.36;100540.70;103502;1284;61487;-83
2023/07/05 12:15:53;;;;;;;;;;;;;;;28.27;44.27;100533.43;103488;1284;63864;-83
2023/07/05 12:18:18;;;;;;;;;;;;;;;28.28;44.28;100526.85;103852;1286;61172;-83
2023/07/05 12:20:46;;;;;;;;;;;;;;;28.28;44.24;100523.73;104138;1286;62275;-83
2023/07/05 12:23:13;;;;;;;;;;;;;;;28.29;44.27;100522.21;103928;1287;60055;-83
2023/07/05 12:25:38;;;;;;;;;;;;;;;28.30;44.14;100519.42;103214;1286;64755;-82